Terminal Aerodrome Forecast
Issued by NWS

Home | Current Version | Previous Version | Text Only | Print | Product List | Glossary On
Versions: 1 2 3 4 5 6 7 8 9 10 11 12 13 14 15 16 17 18 19 20 21 22 23 24 25 26 27 28 29 30 31 32 33 34 35 36 37 38
000
FTUS45 KBOI 290520
TAFMYL
TAF
KMYL 290520Z 2906/3006 VRB03KT 3SM -SN BR SCT012 OVC025
      TEMPO 2906/2910 1SM -SN BR OVC010
     FM291000 VRB03KT 2SM BR VCSH OVC012
     FM291400 36007KT 3SM -SN BR OVC015
      TEMPO 2914/2918 1SM -SN BR OVC010
     FM292000 36007KT 5SM BR VCSH SCT015 BKN040
     FM300200 34007KT 2SM BR SCT015 OVC025=

USA.gov is the U.S. government's official web portal to all federal, state and local government web resources and services.